Time;durP1;ratioP1;P1;durP2;ratioP2;P2;SDS_P1;SDS_P2;PMS_P1;PMS_P2;Temp;Humidity;BMP_temperature;BMP_pressure;BME280_temperature;BME280_humidity;BME280_pressure;Samples;Min_cycle;Max_cycle;Signal;HPM_P1;HPM_P2
2021/11/14 00:01:01;;;;;;;28.77;25.63;;;8.00;99.90;;;;;;5063414;28;20543;-65
2021/11/14 00:03:30;;;;;;;27.63;24.73;;;8.00;99.90;;;;;;5063038;28;20450;-64
2021/11/14 00:05:57;;;;;;;28.50;25.03;;;8.00;99.90;;;;;;5063308;28;20483;-64
2021/11/14 00:08:24;;;;;;;29.80;23.87;;;8.00;99.90;;;;;;5061561;28;20450;-65
2021/11/14 00:10:53;;;;;;;29.60;25.50;;;8.10;99.90;;;;;;5064261;28;20459;-65
2021/11/14 00:13:20;;;;;;;27.50;24.50;;;8.10;99.90;;;;;;5063898;28;20448;-65
2021/11/14 00:15:47;;;;;;;25.97;23.27;;;8.10;99.90;;;;;;5064513;28;20478;-64
2021/11/14 00:18:15;;;;;;;30.67;24.20;;;8.10;99.90;;;;;;5062246;28;20443;-64
2021/11/14 00:20:43;;;;;;;27.90;24.03;;;8.10;99.90;;;;;;5064099;28;20436;-65
2021/11/14 00:23:10;;;;;;;27.23;23.43;;;8.20;99.90;;;;;;5063419;28;20534;-64
2021/11/14 00:25:38;;;;;;;27.50;24.20;;;8.20;99.90;;;;;;5062823;28;20475;-64
2021/11/14 00:28:06;;;;;;;34.67;27.10;;;8.20;99.90;;;;;;5062419;28;20455;-65
2021/11/14 00:30:33;;;;;;;29.27;25.80;;;8.20;99.90;;;;;;5061811;28;20502;-65
2021/11/14 00:33:00;;;;;;;30.77;23.83;;;8.20;99.90;;;;;;5063116;28;20998;-64
2021/11/14 00:35:28;;;;;;;27.40;21.90;;;8.20;99.90;;;;;;5059859;28;20439;-64
2021/11/14 00:37:55;;;;;;;29.67;24.37;;;8.20;99.90;;;;;;5062005;28;20822;-64
2021/11/14 00:40:26;;;;;;;27.73;22.87;;;8.30;99.90;;;;;;5063034;28;20824;-64
2021/11/14 00:42:54;;;;;;;24.77;22.07;;;8.30;99.90;;;;;;5063177;28;20946;-65
2021/11/14 00:45:21;;;;;;;24.83;22.13;;;8.30;99.90;;;;;;5063371;28;20502;-64
2021/11/14 00:47:48;;;;;;;30.73;21.50;;;8.30;99.90;;;;;;5061223;28;21051;-65
2021/11/14 00:50:17;;;;;;;26.77;22.87;;;8.30;99.90;;;;;;5063166;28;20440;-64
2021/11/14 00:52:46;;;;;;;28.33;22.93;;;8.30;99.90;;;;;;5062399;28;20466;-64
2021/11/14 00:55:16;;;;;;;25.87;22.93;;;8.30;99.90;;;;;;5063883;28;21026;-65
2021/11/14 00:57:43;;;;;;;24.00;21.00;;;8.30;99.90;;;;;;5049767;28;20636;-64
2021/11/14 01:00:14;;;;;;;23.97;21.47;;;8.30;99.90;;;;;;5043310;28;20453;-65
2021/11/14 01:02:42;;;;;;;25.47;21.40;;;8.30;99.90;;;;;;5040462;28;20443;-65
2021/11/14 01:05:11;;;;;;;25.43;21.40;;;8.30;99.90;;;;;;5047247;28;20492;-64
2021/11/14 01:07:38;;;;;;;26.67;22.17;;;8.30;99.90;;;;;;5045224;28;20470;-64
2021/11/14 01:10:09;;;;;;;26.93;23.13;;;8.30;99.90;;;;;;5046872;28;20950;-65
2021/11/14 01:12:36;;;;;;;30.50;23.40;;;8.30;99.90;;;;;;5046837;28;20444;-65
2021/11/14 01:15:05;;;;;;;24.07;20.57;;;8.40;99.90;;;;;;5046970;28;20876;-65
2021/11/14 01:17:38;;;;;;;25.93;22.57;;;8.40;99.90;;;;;;5045945;28;20467;-65
2021/11/14 01:20:07;;;;;;;24.93;22.03;;;8.40;99.90;;;;;;5046946;28;20834;-65
2021/11/14 01:22:34;;;;;;;25.63;21.50;;;8.40;99.90;;;;;;5046655;28;20535;-65
2021/11/14 01:25:01;;;;;;;26.47;22.13;;;8.40;99.90;;;;;;5046832;28;20483;-65
2021/11/14 01:27:29;;;;;;;25.00;21.77;;;8.40;99.90;;;;;;5045333;28;20472;-64
2021/11/14 01:29:56;;;;;;;23.23;20.17;;;8.40;99.90;;;;;;5046628;28;20450;-64
2021/11/14 01:32:23;;;;;;;23.43;20.30;;;8.40;99.90;;;;;;5046361;28;20942;-62
2021/11/14 01:34:50;;;;;;;24.43;20.47;;;8.40;99.90;;;;;;5046602;28;20942;-66
2021/11/14 01:37:17;;;;;;;26.40;21.13;;;8.40;99.90;;;;;;5042756;28;20634;-65
2021/11/14 01:39:44;;;;;;;23.93;20.27;;;8.40;99.90;;;;;;5045743;28;20548;-65
2021/11/14 01:42:11;;;;;;;26.00;22.13;;;8.40;99.90;;;;;;5050268;28;20519;-64
2021/11/14 01:44:39;;;;;;;24.90;21.03;;;8.40;99.90;;;;;;5050253;28;20472;-65
2021/11/14 01:47:06;;;;;;;23.83;21.30;;;8.40;99.90;;;;;;5049149;28;20484;-65
2021/11/14 01:49:33;;;;;;;24.00;21.17;;;8.40;99.90;;;;;;5050483;28;20451;-65
2021/11/14 01:52:00;;;;;;;24.93;22.40;;;8.40;99.90;;;;;;5050684;28;20458;-65
2021/11/14 01:54:29;;;;;;;26.63;21.70;;;8.40;99.90;;;;;;5050405;28;20491;-65
2021/11/14 01:56:56;;;;;;;25.63;21.60;;;8.40;99.90;;;;;;5049522;28;20503;-65
2021/11/14 01:59:23;;;;;;;25.33;22.40;;;8.40;99.90;;;;;;5050157;28;20531;-63
2021/11/14 02:01:52;;;;;;;24.47;21.07;;;8.50;99.90;;;;;;5050833;28;20456;-65
2021/11/14 02:04:20;;;;;;;22.90;20.30;;;8.50;99.90;;;;;;5047558;28;20476;-64
2021/11/14 02:06:47;;;;;;;24.97;21.63;;;8.50;99.90;;;;;;5048828;28;21201;-64
2021/11/14 02:09:15;;;;;;;23.53;21.03;;;8.50;99.90;;;;;;5050378;28;20452;-65
2021/11/14 02:11:43;;;;;;;23.50;19.90;;;8.50;99.90;;;;;;5050304;28;21359;-65
2021/11/14 02:14:10;;;;;;;19.93;17.57;;;8.40;99.90;;;;;;5050529;28;20481;-65
2021/11/14 02:16:37;;;;;;;21.50;19.30;;;8.40;99.90;;;;;;5048981;28;20890;-65
2021/11/14 02:19:06;;;;;;;24.50;19.83;;;8.40;99.90;;;;;;5050503;28;20455;-64
2021/11/14 02:21:34;;;;;;;21.63;18.80;;;8.30;99.90;;;;;;5049834;28;20444;-65
2021/11/14 02:24:02;;;;;;;22.20;19.47;;;8.30;99.90;;;;;;5050465;28;20444;-65
2021/11/14 02:26:29;;;;;;;26.67;20.30;;;8.30;99.90;;;;;;5049098;28;20499;-65
2021/11/14 02:28:57;;;;;;;24.23;19.60;;;8.30;99.90;;;;;;5052349;28;20450;-65
2021/11/14 02:31:24;;;;;;;24.90;20.87;;;8.30;99.90;;;;;;5052836;28;20444;-65
2021/11/14 02:33:51;;;;;;;23.70;20.63;;;8.30;99.90;;;;;;5052906;28;20466;-65
2021/11/14 02:36:19;;;;;;;23.83;21.10;;;8.30;99.90;;;;;;5051804;28;20463;-64
2021/11/14 02:38:47;;;;;;;22.67;20.27;;;8.40;99.90;;;;;;5052430;28;20563;-66
2021/11/14 02:41:14;;;;;;;33.07;25.83;;;8.40;99.90;;;;;;5052825;28;20444;-65
2021/11/14 02:43:44;;;;;;;26.30;23.27;;;8.40;99.90;;;;;;5052798;28;20440;-65
2021/11/14 02:46:11;;;;;;;28.10;23.53;;;8.40;99.90;;;;;;5052200;28;21005;-65
2021/11/14 02:48:39;;;;;;;27.73;24.07;;;8.40;99.90;;;;;;5051690;28;20806;-64
2021/11/14 02:51:11;;;;;;;25.50;22.80;;;8.50;99.90;;;;;;5052329;28;20449;-65
2021/11/14 02:53:38;;;;;;;25.33;20.40;;;8.40;99.90;;;;;;5051590;28;20441;-65
2021/11/14 02:56:09;;;;;;;25.10;22.00;;;8.40;99.90;;;;;;5052544;28;20460;-65
2021/11/14 02:58:36;;;;;;;25.77;22.00;;;8.40;99.90;;;;;;5051685;28;20887;-65
2021/11/14 03:01:07;;;;;;;24.53;20.80;;;8.40;99.90;;;;;;5052630;28;20448;-63
2021/11/14 03:03:34;;;;;;;24.03;21.43;;;8.30;99.90;;;;;;5052226;28;20463;-64
2021/11/14 03:06:02;;;;;;;28.73;20.90;;;8.40;99.90;;;;;;5052265;28;20487;-64
2021/11/14 03:08:29;;;;;;;26.90;21.13;;;8.40;99.90;;;;;;5051461;28;20441;-65
2021/11/14 03:10:56;;;;;;;24.40;21.80;;;8.40;99.90;;;;;;5052408;28;20967;-64
2021/11/14 03:13:24;;;;;;;25.87;21.20;;;8.40;99.90;;;;;;5052340;28;20458;-65
2021/11/14 03:15:54;;;;;;;30.87;23.83;;;8.40;99.90;;;;;;5052504;28;20831;-64
2021/11/14 03:18:21;;;;;;;24.60;21.23;;;8.40;99.90;;;;;;5051155;28;20443;-66
2021/11/14 03:20:50;;;;;;;28.27;23.10;;;8.40;99.90;;;;;;5052344;28;20456;-65
2021/11/14 03:23:18;;;;;;;26.47;21.13;;;8.40;99.90;;;;;;5052021;28;20444;-64
2021/11/14 03:25:46;;;;;;;29.30;21.20;;;8.40;99.90;;;;;;5051950;28;20480;-65
2021/11/14 03:28:16;;;;;;;26.73;23.83;;;8.40;99.90;;;;;;5050848;28;20980;-65
2021/11/14 03:30:44;;;;;;;24.50;19.83;;;8.40;99.90;;;;;;5051791;28;20532;-65
2021/11/14 03:33:14;;;;;;;27.33;21.07;;;8.40;99.90;;;;;;5051993;28;20447;-65
2021/11/14 03:35:43;;;;;;;25.80;22.63;;;8.40;99.90;;;;;;5051816;28;20450;-64
2021/11/14 03:38:12;;;;;;;30.90;25.30;;;8.40;99.90;;;;;;5050704;28;20840;-65
2021/11/14 03:40:39;;;;;;;26.83;23.90;;;8.40;99.90;;;;;;5051679;28;20447;-64
2021/11/14 03:43:07;;;;;;;27.13;23.00;;;8.40;99.90;;;;;;5051536;28;20444;-64
2021/11/14 03:45:34;;;;;;;28.20;24.50;;;8.40;99.90;;;;;;5051547;28;20447;-65
2021/11/14 03:48:02;;;;;;;29.43;23.63;;;8.30;99.90;;;;;;5050241;28;20941;-65
2021/11/14 03:50:29;;;;;;;28.47;22.47;;;8.30;99.90;;;;;;5051381;28;20455;-65
2021/11/14 03:52:56;;;;;;;28.03;23.20;;;8.30;99.90;;;;;;5051201;28;20448;-65
2021/11/14 03:55:23;;;;;;;26.77;22.27;;;8.30;99.90;;;;;;5051322;28;20829;-65
2021/11/14 03:57:50;;;;;;;26.80;22.27;;;8.30;99.90;;;;;;5049975;28;20956;-65
2021/11/14 04:00:20;;;;;;;26.10;22.23;;;8.30;99.90;;;;;;5051289;28;20849;-65
2021/11/14 04:02:48;;;;;;;29.67;22.10;;;8.30;99.90;;;;;;5051424;28;20507;-65
2021/11/14 04:05:16;;;;;;;28.00;21.97;;;8.30;99.90;;;;;;5051018;28;20997;-65
2021/11/14 04:07:43;;;;;;;27.20;21.90;;;8.30;99.90;;;;;;5049863;28;20485;-64
2021/11/14 04:10:11;;;;;;;29.20;22.07;;;8.30;99.90;;;;;;5050688;28;20448;-65
2021/11/14 04:12:38;;;;;;;31.03;24.13;;;8.30;99.90;;;;;;5050985;28;21065;-64
2021/11/14 04:15:06;;;;;;;29.60;21.30;;;8.30;99.90;;;;;;5050943;28;20448;-64
2021/11/14 04:17:33;;;;;;;25.90;21.90;;;8.20;99.90;;;;;;5049556;28;20551;-65
2021/11/14 04:20:00;;;;;;;24.17;20.67;;;8.20;99.90;;;;;;5051089;28;20440;-64
2021/11/14 04:22:28;;;;;;;30.33;22.20;;;8.20;99.90;;;;;;5050791;28;20454;-65
2021/11/14 04:24:55;;;;;;;27.13;21.90;;;8.20;99.90;;;;;;5050803;28;20464;-65
2021/11/14 04:27:22;;;;;;;27.90;22.53;;;8.20;99.90;;;;;;5049328;28;20998;-65
2021/11/14 04:29:49;;;;;;;26.63;21.57;;;8.20;99.90;;;;;;5050748;28;20445;-65
2021/11/14 04:32:16;;;;;;;27.33;22.93;;;8.10;99.90;;;;;;5050583;28;20555;-65
2021/11/14 04:34:43;;;;;;;30.67;24.10;;;8.10;99.90;;;;;;5050609;28;20471;-65
2021/11/14 04:37:09;;;;;;;23.73;20.70;;;8.00;99.90;;;;;;5049143;28;20469;-64
2021/11/14 04:39:38;;;;;;;24.10;21.50;;;7.90;99.90;;;;;;5050467;28;20495;-65
2021/11/14 04:42:07;;;;;;;29.30;23.37;;;8.00;99.90;;;;;;5050498;28;20463;-65
2021/11/14 04:44:35;;;;;;;28.47;21.17;;;7.90;99.90;;;;;;5050446;28;20568;-65
2021/11/14 04:47:02;;;;;;;31.73;24.03;;;7.90;99.90;;;;;;5049085;28;20480;-65
2021/11/14 04:49:29;;;;;;;25.60;22.40;;;7.90;99.90;;;;;;5050438;28;20448;-67
2021/11/14 04:51:56;;;;;;;26.33;22.17;;;8.00;99.90;;;;;;5050200;28;21122;-65
2021/11/14 04:54:24;;;;;;;24.40;21.00;;;8.00;99.90;;;;;;5050347;28;20451;-65
2021/11/14 04:56:52;;;;;;;28.10;22.67;;;8.10;99.90;;;;;;5049125;28;20478;-64
2021/11/14 04:59:19;;;;;;;27.00;21.40;;;8.10;99.90;;;;;;5050833;28;20444;-66
2021/11/14 05:01:46;;;;;;;32.37;23.87;;;8.20;99.90;;;;;;5050228;28;20452;-65
2021/11/14 05:04:14;;;;;;;30.20;24.13;;;8.20;99.90;;;;;;5049894;28;20441;-65
2021/11/14 05:06:40;;;;;;;28.87;24.40;;;8.20;99.90;;;;;;5048798;28;20490;-65
2021/11/14 05:09:09;;;;;;;28.70;21.73;;;8.20;99.90;;;;;;5050062;28;20450;-65
2021/11/14 05:11:36;;;;;;;30.80;25.00;;;8.20;99.90;;;;;;5049947;28;20456;-65
2021/11/14 05:14:05;;;;;;;28.87;23.30;;;8.20;99.90;;;;;;5049911;28;20440;-66
2021/11/14 05:16:32;;;;;;;29.90;24.10;;;8.20;99.90;;;;;;5048435;28;20488;-65
2021/11/14 05:18:59;;;;;;;30.17;23.50;;;8.20;99.90;;;;;;5049535;28;20440;-65
2021/11/14 05:21:26;;;;;;;30.90;22.90;;;8.20;99.90;;;;;;5050124;28;20471;-65
2021/11/14 05:23:52;;;;;;;28.40;24.30;;;8.30;99.90;;;;;;5049824;28;20531;-64
2021/11/14 05:26:19;;;;;;;28.47;23.63;;;8.30;99.90;;;;;;5048952;28;20490;-65
2021/11/14 05:28:46;;;;;;;27.00;21.73;;;8.30;99.90;;;;;;5049340;28;20830;-66
2021/11/14 05:31:15;;;;;;;30.87;23.53;;;8.30;99.90;;;;;;5049711;28;20454;-65
2021/11/14 05:33:42;;;;;;;28.20;21.70;;;8.30;99.90;;;;;;5049614;28;20451;-64
2021/11/14 05:36:09;;;;;;;27.20;21.87;;;8.30;99.90;;;;;;5049483;28;20495;-63
2021/11/14 05:38:35;;;;;;;25.40;19.97;;;8.30;99.90;;;;;;5048916;28;20934;-65
2021/11/14 05:41:02;;;;;;;27.43;20.73;;;8.30;99.90;;;;;;5049810;28;20440;-65
2021/11/14 05:43:29;;;;;;;23.73;20.87;;;8.30;99.90;;;;;;5049823;28;20455;-65
2021/11/14 05:45:56;;;;;;;26.87;22.07;;;8.30;99.90;;;;;;5049605;28;20461;-65
2021/11/14 05:48:24;;;;;;;28.20;21.80;;;8.30;99.90;;;;;;5048524;28;20484;-65
2021/11/14 05:50:51;;;;;;;29.60;22.20;;;8.40;99.90;;;;;;5049902;28;20452;-65
2021/11/14 05:53:18;;;;;;;25.53;22.00;;;8.40;99.90;;;;;;5049822;28;20441;-64
2021/11/14 05:55:45;;;;;;;26.27;22.23;;;8.40;99.90;;;;;;5049864;28;20472;-64
2021/11/14 05:58:15;;;;;;;27.10;22.30;;;8.40;99.90;;;;;;5048668;28;20440;-64
2021/11/14 06:00:50;;;;;;;27.77;22.80;;;8.30;99.90;;;;;;5049769;28;20451;-65
2021/11/14 06:03:27;;;;;;;27.50;22.60;;;8.20;99.90;;;;;;5049883;28;20447;-64
2021/11/14 06:05:55;;;;;;;29.93;22.83;;;8.10;99.90;;;;;;5049459;28;20464;-64
2021/11/14 06:08:22;;;;;;;27.10;22.63;;;8.10;99.90;;;;;;5048350;28;20486;-64
2021/11/14 06:10:49;;;;;;;29.27;22.30;;;8.10;99.90;;;;;;5049304;28;20845;-64
2021/11/14 06:13:16;;;;;;;26.10;21.07;;;8.10;99.90;;;;;;5049116;28;20448;-65
2021/11/14 06:15:43;;;;;;;27.93;21.67;;;8.00;99.90;;;;;;5049647;28;20447;-64
2021/11/14 06:18:11;;;;;;;26.20;21.67;;;8.00;99.90;;;;;;5048184;28;20444;-65
2021/11/14 06:20:38;;;;;;;29.17;22.40;;;8.00;99.90;;;;;;5049335;28;20451;-63
2021/11/14 06:23:07;;;;;;;30.97;24.43;;;7.90;99.90;;;;;;5049212;28;20459;-64
2021/11/14 06:25:34;;;;;;;31.77;25.07;;;7.90;99.90;;;;;;5049203;28;20441;-64
2021/11/14 06:28:01;;;;;;;32.33;25.03;;;7.90;99.90;;;;;;5050954;28;20480;-64
2021/11/14 06:30:28;;;;;;;30.43;24.70;;;8.00;99.90;;;;;;5052937;28;20447;-64
2021/11/14 06:32:55;;;;;;;30.57;24.20;;;7.90;99.90;;;;;;5052669;28;20454;-63
2021/11/14 06:35:22;;;;;;;28.40;22.50;;;7.90;99.90;;;;;;5052776;28;20448;-64
2021/11/14 06:37:49;;;;;;;34.90;24.97;;;8.00;99.90;;;;;;5051279;28;20471;-65
2021/11/14 06:40:17;;;;;;;34.90;24.97;;;7.90;99.90;;;;;;5052369;28;20459;-64
2021/11/14 06:42:44;;;;;;;26.20;22.20;;;7.90;99.90;;;;;;5052503;28;20448;-64
2021/11/14 06:45:11;;;;;;;33.33;23.40;;;7.90;99.90;;;;;;5052409;28;20455;-64
2021/11/14 06:47:38;;;;;;;34.87;24.43;;;7.90;99.90;;;;;;5051090;28;20480;-64
2021/11/14 06:50:07;;;;;;;29.63;23.50;;;7.80;99.90;;;;;;5052446;28;20468;-65
2021/11/14 06:52:34;;;;;;;27.70;22.17;;;7.80;99.90;;;;;;5052410;28;20447;-64
2021/11/14 06:55:00;;;;;;;33.87;25.17;;;7.80;99.90;;;;;;5052306;28;20532;-65
2021/11/14 06:57:29;;;;;;;26.50;21.67;;;7.80;99.90;;;;;;5051203;28;20472;-65
2021/11/14 06:59:55;;;;;;;31.07;24.10;;;7.80;99.90;;;;;;5052441;28;20455;-65
2021/11/14 07:02:22;;;;;;;36.87;27.00;;;7.80;99.90;;;;;;5052780;28;20444;-65
2021/11/14 07:04:49;;;;;;;32.60;25.50;;;7.80;99.90;;;;;;5052516;28;20451;-64
2021/11/14 07:07:16;;;;;;;31.10;24.70;;;7.70;99.90;;;;;;5050943;28;20480;-64
2021/11/14 07:09:43;;;;;;;38.70;25.40;;;7.70;99.90;;;;;;5052331;28;20444;-64
2021/11/14 07:12:10;;;;;;;29.37;23.80;;;7.80;99.90;;;;;;5052237;28;20986;-64
2021/11/14 07:14:39;;;;;;;31.47;24.37;;;7.80;99.90;;;;;;5052158;28;20449;-65
2021/11/14 07:17:06;;;;;;;33.03;24.40;;;7.90;99.90;;;;;;5050746;28;20459;-64
2021/11/14 07:19:33;;;;;;;33.50;25.47;;;8.00;99.90;;;;;;5051837;28;20969;-64
2021/11/14 07:22:00;;;;;;;29.20;23.43;;;8.00;99.90;;;;;;5051378;28;20452;-64
2021/11/14 07:24:27;;;;;;;31.07;24.43;;;8.00;99.90;;;;;;5051735;28;20543;-64
2021/11/14 07:26:54;;;;;;;28.60;23.37;;;8.10;99.90;;;;;;5050479;28;20484;-64
2021/11/14 07:29:21;;;;;;;29.47;23.10;;;8.10;99.90;;;;;;5051872;28;20535;-63
2021/11/14 07:31:49;;;;;;;30.73;25.13;;;8.20;99.90;;;;;;5051799;28;20455;-65
2021/11/14 07:34:16;;;;;;;29.90;24.50;;;8.30;99.90;;;;;;5051671;28;20964;-64
2021/11/14 07:36:43;;;;;;;31.90;25.27;;;8.40;99.90;;;;;;5050112;28;20463;-64
2021/11/14 07:39:09;;;;;;;33.87;27.37;;;8.40;99.90;;;;;;5051107;28;20448;-64
2021/11/14 07:41:37;;;;;;;36.80;27.50;;;8.30;99.90;;;;;;5051437;28;20445;-64
2021/11/14 07:44:04;;;;;;;35.47;28.37;;;8.30;99.90;;;;;;5051527;28;20459;-65
2021/11/14 07:46:31;;;;;;;36.87;28.43;;;8.30;99.90;;;;;;5050268;28;21010;-61
2021/11/14 07:48:59;;;;;;;41.63;29.23;;;8.30;99.90;;;;;;5050820;28;20484;-65
2021/11/14 07:51:26;;;;;;;37.23;27.47;;;8.30;99.90;;;;;;5051420;28;20448;-65
2021/11/14 07:53:53;;;;;;;37.47;28.07;;;8.30;99.90;;;;;;5051313;28;20869;-63
2021/11/14 07:56:20;;;;;;;39.10;28.80;;;8.30;99.90;;;;;;5050321;28;20467;-65
2021/11/14 07:58:47;;;;;;;36.80;28.27;;;8.30;99.90;;;;;;5050780;28;20450;-64
2021/11/14 08:01:13;;;;;;;36.60;26.95;;;8.40;99.90;;;;;;5050939;28;20977;-64
2021/11/14 08:03:40;;;;;;;32.40;25.30;;;8.40;99.90;;;;;;5050804;28;20241;-64
2021/11/14 08:06:09;;;;;;;32.30;26.67;;;8.60;99.90;;;;;;5050838;28;20897;-64
2021/11/14 08:08:35;;;;;;;27.87;23.13;;;8.70;99.90;;;;;;5049986;28;20480;-65
2021/11/14 08:11:02;;;;;;;30.87;24.77;;;8.80;99.90;;;;;;5050821;28;20456;-65
2021/11/14 08:13:29;;;;;;;31.40;24.83;;;8.90;99.90;;;;;;5050918;28;20886;-64
2021/11/14 08:15:56;;;;;;;29.90;23.80;;;9.00;99.90;;;;;;5050450;28;20978;-63
2021/11/14 08:18:23;;;;;;;30.90;25.07;;;9.10;99.90;;;;;;5049649;28;20444;-63
2021/11/14 08:20:50;;;;;;;29.80;24.10;;;9.10;99.90;;;;;;5048603;28;20958;-63
2021/11/14 08:23:20;;;;;;;29.80;23.47;;;9.30;99.90;;;;;;5050982;28;20470;-65
2021/11/14 08:25:48;;;;;;;29.40;24.43;;;9.30;99.90;;;;;;5050611;28;20468;-65
2021/11/14 08:28:16;;;;;;;29.60;23.70;;;9.30;99.90;;;;;;5049473;28;20484;-65
2021/11/14 08:30:43;;;;;;;24.80;21.70;;;9.40;99.90;;;;;;5050580;28;20529;-63
2021/11/14 08:33:11;;;;;;;25.60;22.60;;;9.40;99.90;;;;;;5050639;28;20455;-63
2021/11/14 08:35:40;;;;;;;23.67;21.07;;;9.70;99.90;;;;;;5050880;28;20445;-64
2021/11/14 08:38:07;;;;;;;22.70;20.20;;;9.80;99.90;;;;;;5049670;28;20662;-65
2021/11/14 08:40:37;;;;;;;22.37;19.97;;;10.00;99.90;;;;;;5050254;28;20440;-64
2021/11/14 08:43:07;;;;;;;23.40;21.07;;;10.10;99.90;;;;;;5050523;28;20447;-65
2021/11/14 08:45:34;;;;;;;21.77;19.37;;;10.10;99.90;;;;;;5050274;28;20966;-65
2021/11/14 08:48:02;;;;;;;21.97;19.60;;;10.20;99.90;;;;;;5048869;28;20476;-62
2021/11/14 08:50:30;;;;;;;24.10;20.07;;;10.20;99.90;;;;;;5049541;28;20555;-64
2021/11/14 08:52:58;;;;;;;22.40;20.00;;;10.20;99.90;;;;;;5050216;28;20535;-65
2021/11/14 08:55:27;;;;;;;24.33;18.97;;;10.30;99.90;;;;;;5049980;28;20455;-64
2021/11/14 08:57:56;;;;;;;20.10;18.10;;;10.30;99.90;;;;;;5048617;28;20440;-64
2021/11/14 09:00:26;;;;;;;20.80;18.80;;;10.40;99.90;;;;;;5049814;28;20445;-61
2021/11/14 09:02:55;;;;;;;21.27;18.97;;;10.40;99.90;;;;;;5049831;28;20440;-65
2021/11/14 09:05:24;;;;;;;20.00;17.00;;;10.50;99.90;;;;;;5049744;28;20531;-65
2021/11/14 09:07:53;;;;;;;19.83;17.73;;;10.60;99.90;;;;;;5048439;28;20528;-63
2021/11/14 09:10:20;;;;;;;20.17;18.10;;;10.70;99.90;;;;;;5049487;28;20455;-64
2021/11/14 09:12:47;;;;;;;18.27;16.37;;;10.80;99.90;;;;;;5048288;28;20545;-64
2021/11/14 09:15:17;;;;;;;20.60;17.73;;;10.90;99.90;;;;;;5042803;28;20452;-65
2021/11/14 09:17:45;;;;;;;18.83;16.90;;;10.90;99.90;;;;;;5040730;28;20469;-65
2021/11/14 09:20:12;;;;;;;19.37;16.43;;;10.90;99.90;;;;;;5047700;28;20444;-63
2021/11/14 09:22:39;;;;;;;19.93;16.63;;;11.00;99.90;;;;;;5047482;28;21042;-64
2021/11/14 09:25:17;;;;;;;19.67;17.57;;;11.10;99.90;;;;;;5050086;28;20448;-62
2021/11/14 09:27:44;;;;;;;19.50;16.37;;;11.10;99.90;;;;;;5047353;28;20491;-65
2021/11/14 09:30:12;;;;;;;21.07;17.60;;;11.20;99.90;;;;;;5047856;28;20946;-65
2021/11/14 09:32:40;;;;;;;17.43;15.63;;;11.30;99.90;;;;;;5044916;28;20448;-65
2021/11/14 09:35:08;;;;;;;18.07;15.90;;;11.40;99.90;;;;;;5049151;28;20444;-61
2021/11/14 09:37:35;;;;;;;18.77;16.83;;;11.40;99.90;;;;;;5048313;28;20475;-64
2021/11/14 09:40:03;;;;;;;18.27;16.27;;;11.50;99.90;;;;;;5049274;28;20448;-64
2021/11/14 09:42:30;;;;;;;17.53;15.73;;;11.40;99.90;;;;;;5049654;28;20461;-64
2021/11/14 09:44:58;;;;;;;22.57;18.10;;;11.20;99.90;;;;;;5049521;28;20455;-65
2021/11/14 09:47:25;;;;;;;21.87;18.37;;;11.10;99.90;;;;;;5043341;28;20487;-64
2021/11/14 09:49:57;;;;;;;20.53;17.70;;;11.10;99.90;;;;;;5039080;28;20448;-65
2021/11/14 09:52:25;;;;;;;18.80;17.00;;;11.30;99.90;;;;;;5036183;28;20498;-65
2021/11/14 09:54:52;;;;;;;19.10;17.10;;;11.30;99.90;;;;;;5037267;28;20453;-63
2021/11/14 09:57:19;;;;;;;18.43;16.40;;;11.30;99.90;;;;;;5037608;28;20480;-64
2021/11/14 09:59:46;;;;;;;20.03;17.90;;;11.50;99.90;;;;;;5036656;28;20833;-67
2021/11/14 10:02:13;;;;;;;19.37;17.17;;;11.60;99.90;;;;;;5033665;28;20444;-65
2021/11/14 10:04:40;;;;;;;20.27;17.13;;;11.50;99.90;;;;;;5045335;28;20452;-64
2021/11/14 10:07:12;;;;;;;19.67;17.30;;;11.60;99.90;;;;;;5049122;28;20474;-64
2021/11/14 10:09:40;;;;;;;17.53;15.73;;;11.80;99.90;;;;;;5044299;28;20484;-64
2021/11/14 10:12:13;;;;;;;18.53;16.53;;;11.80;99.90;;;;;;5032801;28;21052;-66
2021/11/14 10:14:40;;;;;;;16.60;14.87;;;12.00;99.90;;;;;;5043437;28;20454;-65
2021/11/14 10:17:19;;;;;;;16.67;14.87;;;11.90;99.90;;;;;;5037528;28;20463;-64
2021/11/14 10:20:01;;;;;;;16.97;15.27;;;11.90;99.90;;;;;;5037605;28;20448;-64
2021/11/14 10:22:30;;;;;;;16.70;14.80;;;11.80;99.90;;;;;;5041291;28;20453;-64
2021/11/14 10:24:58;;;;;;;16.57;14.83;;;11.60;99.90;;;;;;5041444;28;20462;-64
2021/11/14 10:27:26;;;;;;;16.73;14.93;;;11.60;99.90;;;;;;5035498;28;20477;-65
2021/11/14 10:29:53;;;;;;;17.93;14.70;;;11.80;99.90;;;;;;5038252;28;20485;-64
2021/11/14 10:32:21;;;;;;;18.67;16.77;;;11.70;99.90;;;;;;5038462;28;20456;-65
2021/11/14 10:34:49;;;;;;;16.13;14.53;;;11.80;99.90;;;;;;5036788;28;20936;-64
2021/11/14 10:37:19;;;;;;;16.63;14.83;;;11.80;99.90;;;;;;5046241;28;20468;-64
2021/11/14 10:39:51;;;;;;;18.00;15.37;;;12.00;99.90;;;;;;5036717;28;20449;-64
2021/11/14 10:42:18;;;;;;;19.60;15.47;;;12.10;99.90;;;;;;5041368;28;20532;-65
2021/11/14 10:44:47;;;;;;;15.93;13.67;;;12.40;99.90;;;;;;5044641;28;20453;-64
2021/11/14 10:47:18;;;;;;;17.37;15.23;;;12.50;99.90;;;;;;5046239;28;20486;-66
2021/11/14 10:49:59;;;;;;;18.30;16.47;;;12.50;99.90;;;;;;5045285;28;20476;-66
2021/11/14 10:52:28;;;;;;;15.47;13.87;;;12.50;99.90;;;;;;5049291;28;20450;-60
2021/11/14 10:54:59;;;;;;;18.93;16.30;;;12.40;99.90;;;;;;5051277;28;20441;-64
2021/11/14 10:57:27;;;;;;;17.23;15.37;;;12.30;99.90;;;;;;5049923;28;20874;-64
2021/11/14 10:59:54;;;;;;;15.87;13.43;;;12.40;99.90;;;;;;5045331;28;20532;-63
2021/11/14 11:02:23;;;;;;;16.80;15.10;;;12.40;99.90;;;;;;5048164;28;20532;-66
2021/11/14 11:04:52;;;;;;;17.17;15.10;;;12.40;99.90;;;;;;5037290;28;20445;-65
2021/11/14 11:07:20;;;;;;;18.37;15.87;;;12.40;99.90;;;;;;5030398;28;20463;-65
2021/11/14 11:09:49;;;;;;;18.47;16.10;;;12.20;99.90;;;;;;5044006;28;20476;-66
2021/11/14 11:12:19;;;;;;;18.23;16.27;;;11.80;99.90;;;;;;5042235;28;20535;-65
2021/11/14 11:15:08;;;;;;;19.20;17.13;;;11.50;99.90;;;;;;5050470;28;20440;-64
2021/11/14 11:17:48;;;;;;;20.70;17.63;;;11.30;99.90;;;;;;5037502;28;20488;-65
2021/11/14 11:20:18;;;;;;;20.03;16.80;;;11.40;99.90;;;;;;5049277;28;20537;-66
2021/11/14 11:22:50;;;;;;;20.33;15.93;;;11.30;99.90;;;;;;5051219;28;20444;-65
2021/11/14 11:25:29;;;;;;;19.00;17.00;;;11.30;99.90;;;;;;5047922;28;20452;-65
2021/11/14 11:27:58;;;;;;;19.03;16.03;;;11.10;99.90;;;;;;5049818;28;20448;-65
2021/11/14 11:30:30;;;;;;;23.93;19.50;;;10.90;99.90;;;;;;5050609;28;20452;-64
2021/11/14 11:32:57;;;;;;;20.23;17.13;;;10.70;99.90;;;;;;5044092;28;20443;-65
2021/11/14 11:35:25;;;;;;;26.10;21.00;;;10.60;99.90;;;;;;5042507;28;20476;-66
2021/11/14 11:37:52;;;;;;;22.70;17.50;;;10.60;99.90;;;;;;5029030;28;20465;-65
2021/11/14 11:40:19;;;;;;;24.90;19.37;;;10.70;99.90;;;;;;5027011;28;20933;-66
2021/11/14 11:42:46;;;;;;;23.90;20.30;;;10.60;99.90;;;;;;5041199;28;20440;-65
2021/11/14 11:45:25;;;;;;;25.73;20.97;;;10.60;99.90;;;;;;5047589;28;20440;-65
2021/11/14 11:47:53;;;;;;;24.93;19.70;;;10.70;99.90;;;;;;5032059;28;20456;-65
2021/11/14 11:50:25;;;;;;;27.73;20.27;;;10.80;99.90;;;;;;5053936;28;20510;-65
2021/11/14 11:52:52;;;;;;;26.60;20.77;;;11.00;99.90;;;;;;5062776;28;20454;-64
2021/11/14 11:55:24;;;;;;;25.80;19.40;;;11.10;99.90;;;;;;5052744;28;20448;-65
2021/11/14 11:57:53;;;;;;;22.67;16.57;;;11.30;99.90;;;;;;5060244;28;20542;-65
2021/11/14 12:00:22;;;;;;;22.40;17.03;;;11.40;99.90;;;;;;5063007;28;20447;-66
2021/11/14 12:02:49;;;;;;;21.90;18.47;;;11.50;99.90;;;;;;5060978;28;20893;-66
2021/11/14 12:05:20;;;;;;;22.83;18.30;;;11.70;99.90;;;;;;5041252;28;20934;-64
2021/11/14 12:07:48;;;;;;;20.70;16.00;;;11.80;99.90;;;;;;5043272;28;20468;-65
2021/11/14 12:10:18;;;;;;;18.87;14.67;;;12.00;99.90;;;;;;5044632;28;20476;-65
2021/11/14 12:12:49;;;;;;;18.20;15.00;;;12.10;99.90;;;;;;5045085;28;20488;-64
2021/11/14 12:15:22;;;;;;;19.10;15.07;;;12.40;99.90;;;;;;5045054;28;20531;-64
2021/11/14 12:17:53;;;;;;;20.70;14.47;;;12.40;99.90;;;;;;5043865;28;20478;-64
2021/11/14 12:20:25;;;;;;;21.63;16.67;;;12.50;99.90;;;;;;5044921;28;20518;-66
2021/11/14 12:22:55;;;;;;;23.13;16.93;;;12.30;99.90;;;;;;5045041;28;20976;-65
2021/11/14 12:25:29;;;;;;;27.33;17.23;;;11.90;99.90;;;;;;5044451;28;20451;-65
2021/11/14 12:28:02;;;;;;;25.90;17.83;;;11.50;99.90;;;;;;5043615;28;20440;-65
2021/11/14 12:30:31;;;;;;;22.67;16.23;;;11.40;99.90;;;;;;5044662;28;20480;-65
2021/11/14 12:32:59;;;;;;;25.17;19.03;;;11.40;99.90;;;;;;5042791;28;20451;-65
2021/11/14 12:35:29;;;;;;;22.50;16.63;;;11.60;99.90;;;;;;5044627;28;20460;-64
2021/11/14 12:37:59;;;;;;;25.30;17.60;;;11.70;99.90;;;;;;5037294;28;21121;-66